createdAt,value
2018-11-23T00:02:19.372Z,232.67
2018-11-23T00:04:47.207Z,218.07
2018-11-23T00:07:15.052Z,229.17
2018-11-23T00:09:42.879Z,206.50
2018-11-23T00:12:10.739Z,226.43
2018-11-23T00:14:38.583Z,217.50
2018-11-23T00:17:06.423Z,214.10
2018-11-23T00:19:34.391Z,209.57
2018-11-23T00:22:02.219Z,235.20
2018-11-23T00:24:30.088Z,211.20
2018-11-23T00:26:57.935Z,208.60
2018-11-23T00:29:25.767Z,204.90
2018-11-23T00:31:53.722Z,213.93
2018-11-23T00:34:21.584Z,215.20
2018-11-23T00:36:49.465Z,216.40
2018-11-23T00:39:17.364Z,205.17
2018-11-23T00:41:45.220Z,215.97
2018-11-23T00:44:13.091Z,203.13
2018-11-23T00:46:40.963Z,217.90
2018-11-23T00:49:08.835Z,220.33
2018-11-23T00:51:36.672Z,209.83
2018-11-23T00:54:04.582Z,208.40
2018-11-23T00:56:32.499Z,204.53
2018-11-23T00:59:00.352Z,221.53
2018-11-23T01:01:31.468Z,201.17
2018-11-23T01:03:59.374Z,200.97
2018-11-23T01:06:27.207Z,207.53
2018-11-23T01:08:55.076Z,207.73
2018-11-23T01:11:22.943Z,199.13
2018-11-23T01:13:50.819Z,202.10
2018-11-23T01:16:18.688Z,216.60
2018-11-23T01:18:46.517Z,194.53
2018-11-23T01:21:14.404Z,201.57
2018-11-23T01:23:42.248Z,195.17
2018-11-23T01:26:10.231Z,215.37
2018-11-23T01:28:38.092Z,197.60
2018-11-23T01:31:05.978Z,202.17
2018-11-23T01:33:33.831Z,201.10
2018-11-23T01:36:01.676Z,207.03
2018-11-23T01:38:29.536Z,203.70
2018-11-23T01:40:57.378Z,213.97
2018-11-23T01:43:25.225Z,200.33
2018-11-23T01:45:53.064Z,210.97
2018-11-23T01:48:20.933Z,214.67
2018-11-23T01:50:48.770Z,194.13
2018-11-23T01:53:16.660Z,209.33
2018-11-23T01:55:44.559Z,209.63
2018-11-23T01:58:12.417Z,202.17
2018-11-23T02:00:40.276Z,213.53
2018-11-23T02:03:08.151Z,208.73
2018-11-23T02:05:36.046Z,202.40
2018-11-23T02:08:03.897Z,195.40
2018-11-23T02:10:31.797Z,208.90
2018-11-23T02:12:59.668Z,204.80
2018-11-23T02:15:27.556Z,198.50
2018-11-23T02:17:55.444Z,191.20
2018-11-23T02:20:23.509Z,211.37
2018-11-23T02:22:51.383Z,202.20
2018-11-23T02:25:19.320Z,205.13
2018-11-23T02:27:47.152Z,182.37
2018-11-23T02:30:19.676Z,195.33
2018-11-23T02:32:47.591Z,210.50
2018-11-23T02:35:15.912Z,189.13
2018-11-23T02:37:43.764Z,188.07
2018-11-23T02:40:12.927Z,205.87
2018-11-23T02:42:40.836Z,186.63
2018-11-23T02:45:09.520Z,197.60
2018-11-23T02:47:37.411Z,205.70
2018-11-23T02:50:05.435Z,198.27
2018-11-23T02:52:33.316Z,193.03
2018-11-23T02:55:01.221Z,199.30
2018-11-23T02:57:29.132Z,190.10
2018-11-23T02:59:57.016Z,183.57
2018-11-23T03:02:24.896Z,215.53
2018-11-23T03:04:52.780Z,201.50
2018-11-23T03:07:20.688Z,202.33
2018-11-23T03:09:48.535Z,192.03
2018-11-23T03:12:16.412Z,185.67
2018-11-23T03:14:44.301Z,188.50
2018-11-23T03:17:12.183Z,191.90
2018-11-23T03:19:40.099Z,196.50
2018-11-23T03:22:08.002Z,190.00
2018-11-23T03:24:35.883Z,198.87
2018-11-23T03:27:03.764Z,191.93
2018-11-23T03:29:31.669Z,194.27
2018-11-23T03:31:59.536Z,191.67
2018-11-23T03:34:27.411Z,209.93
2018-11-23T03:36:55.263Z,199.20
2018-11-23T03:39:23.131Z,201.03
2018-11-23T03:41:50.998Z,193.97
2018-11-23T03:44:18.863Z,206.63
2018-11-23T03:46:46.846Z,209.50
2018-11-23T03:49:14.713Z,196.70
2018-11-23T03:51:42.560Z,209.17
2018-11-23T03:54:10.394Z,218.27
2018-11-23T03:56:38.255Z,218.67
2018-11-23T03:59:06.095Z,216.17
2018-11-23T04:01:33.958Z,211.93
2018-11-23T04:04:01.800Z,195.60
2018-11-23T04:06:29.643Z,205.20
2018-11-23T04:08:57.495Z,225.17
2018-11-23T04:11:25.330Z,205.07
2018-11-23T04:13:53.183Z,214.67
2018-11-23T04:16:21.023Z,228.73
2018-11-23T04:18:48.871Z,211.80
2018-11-23T04:21:16.722Z,231.60
2018-11-23T04:23:44.563Z,229.83
2018-11-23T04:26:12.403Z,231.87
2018-11-23T04:28:40.257Z,236.77
2018-11-23T04:31:08.093Z,231.70
2018-11-23T04:33:35.940Z,233.90
2018-11-23T04:36:03.778Z,217.30
2018-11-23T04:38:31.627Z,251.20
2018-11-23T04:40:59.467Z,242.37
2018-11-23T04:43:27.316Z,228.60
2018-11-23T04:45:55.170Z,235.53
2018-11-23T04:48:23.018Z,242.33
2018-11-23T04:50:50.859Z,230.40
2018-11-23T04:53:18.824Z,247.33
2018-11-23T04:55:46.683Z,244.73
2018-11-23T04:58:14.556Z,252.73
2018-11-23T05:00:42.394Z,268.50
2018-11-23T05:03:10.232Z,259.23
2018-11-23T05:05:38.099Z,252.33
2018-11-23T05:08:06.019Z,245.00
2018-11-23T05:10:33.888Z,242.43
2018-11-23T05:13:01.735Z,265.57
2018-11-23T05:15:29.998Z,265.30
2018-11-23T05:17:57.867Z,263.30
2018-11-23T05:20:25.734Z,249.63
2018-11-23T05:22:53.587Z,247.93
2018-11-23T05:25:23.292Z,276.83
2018-11-23T05:27:51.155Z,288.30
2018-11-23T05:30:20.259Z,279.23
2018-11-23T05:32:48.145Z,295.90
2018-11-23T05:35:16.923Z,290.83
2018-11-23T05:37:44.827Z,277.67
2018-11-23T05:40:14.073Z,292.47
2018-11-23T05:42:41.925Z,304.13
2018-11-23T05:45:11.449Z,302.67
2018-11-23T05:47:39.287Z,282.27
2018-11-23T05:50:08.176Z,290.47
2018-11-23T05:52:36.070Z,283.33
2018-11-23T05:55:03.938Z,300.93
2018-11-23T05:57:31.783Z,280.67
2018-11-23T05:59:59.635Z,294.03
2018-11-23T06:02:27.490Z,294.13
2018-11-23T06:04:55.351Z,279.77
2018-11-23T06:07:23.794Z,279.60
2018-11-23T06:09:51.648Z,263.37
2018-11-23T06:12:19.511Z,288.33
2018-11-23T06:14:47.366Z,257.30
2018-11-23T06:17:15.287Z,256.67
2018-11-23T06:19:43.131Z,256.60
2018-11-23T06:22:10.987Z,278.77
2018-11-23T06:24:38.822Z,251.47
2018-11-23T06:27:06.691Z,266.13
2018-11-23T06:29:34.548Z,257.07
2018-11-23T06:32:02.419Z,248.70
2018-11-23T06:34:30.259Z,256.30
2018-11-23T06:36:58.130Z,268.80
2018-11-23T06:39:25.974Z,246.50
2018-11-23T06:41:53.827Z,300.83
2018-11-23T06:44:27.159Z,258.90
2018-11-23T06:46:55.020Z,268.70
2018-11-23T06:49:22.854Z,276.50
2018-11-23T06:51:50.707Z,277.63
2018-11-23T06:54:18.558Z,299.77
2018-11-23T06:56:46.394Z,246.10
2018-11-23T06:59:14.242Z,264.73
2018-11-23T07:01:42.099Z,279.57
2018-11-23T07:04:09.931Z,284.63
2018-11-23T07:06:37.802Z,276.80
2018-11-23T07:09:06.891Z,275.33
2018-11-23T07:11:34.732Z,272.03
2018-11-23T07:14:03.993Z,280.00
2018-11-23T07:16:30.508Z,295.53
2018-11-23T07:18:58.356Z,255.80
2018-11-23T07:21:26.202Z,276.13
2018-11-23T07:23:54.053Z,268.57
2018-11-23T07:26:21.916Z,272.83
2018-11-23T07:28:49.768Z,269.63
2018-11-23T07:31:17.648Z,282.43
2018-11-23T07:33:45.530Z,233.73
2018-11-23T07:36:13.383Z,263.40
2018-11-23T07:38:41.275Z,244.07
2018-11-23T07:41:14.715Z,268.57
2018-11-23T07:43:42.562Z,260.70
2018-11-23T07:46:10.414Z,247.87
2018-11-23T07:48:38.258Z,334.03
2018-11-23T07:51:06.112Z,244.90
2018-11-23T07:53:33.984Z,248.97
2018-11-23T07:56:01.837Z,287.30
2018-11-23T07:58:29.712Z,267.97
2018-11-23T08:00:57.594Z,261.77
2018-11-23T08:03:25.448Z,257.20
2018-11-23T08:05:53.297Z,242.67
2018-11-23T08:08:21.155Z,434.07
2018-11-23T08:10:48.423Z,245.23
2018-11-23T08:13:16.280Z,279.83
2018-11-23T08:15:44.124Z,257.23
2018-11-23T08:18:11.962Z,277.20
2018-11-23T08:20:39.840Z,261.87
2018-11-23T08:23:07.679Z,245.40
2018-11-23T08:25:35.535Z,268.77
2018-11-23T08:28:03.396Z,265.23
2018-11-23T08:30:31.259Z,283.83
2018-11-23T08:32:59.275Z,542.73
2018-11-23T08:35:27.159Z,249.47
2018-11-23T08:37:55.004Z,247.50
2018-11-23T08:40:24.218Z,258.73
2018-11-23T08:42:52.703Z,254.57
2018-11-23T08:45:21.770Z,250.70
2018-11-23T08:47:49.611Z,369.47
2018-11-23T08:50:19.256Z,267.30
2018-11-23T08:52:47.107Z,266.00
2018-11-23T08:55:15.713Z,252.13
2018-11-23T08:57:43.609Z,283.20
2018-11-23T09:00:13.886Z,325.63
2018-11-23T09:02:42.279Z,285.13
2018-11-23T09:05:10.135Z,262.20
2018-11-23T09:07:38.003Z,252.30
2018-11-23T09:10:07.060Z,273.13
2018-11-23T09:12:34.917Z,295.27
2018-11-23T09:15:02.760Z,293.70
2018-11-23T09:17:30.614Z,279.27
2018-11-23T09:19:58.466Z,311.00
2018-11-23T09:22:26.340Z,324.17
2018-11-23T09:24:54.173Z,295.93
2018-11-23T09:27:22.063Z,285.73
2018-11-23T09:29:49.919Z,283.47
2018-11-23T09:32:18.229Z,270.63
2018-11-23T09:34:46.090Z,296.93
2018-11-23T09:37:13.966Z,281.33
2018-11-23T09:39:41.840Z,315.20
2018-11-23T09:42:09.710Z,283.60
2018-11-23T09:44:37.562Z,283.33
2018-11-23T09:47:09.980Z,459.37
2018-11-23T09:49:33.718Z,341.87
2018-11-23T09:52:01.543Z,300.37
2018-11-23T09:54:29.404Z,291.60
2018-11-23T09:56:57.250Z,296.50
2018-11-23T09:59:25.114Z,287.93
2018-11-23T10:01:53.068Z,316.33
2018-11-23T10:04:20.940Z,308.93
2018-11-23T10:06:48.788Z,343.83
2018-11-23T10:09:16.630Z,307.30
2018-11-23T10:11:44.479Z,315.70
2018-11-23T10:14:12.338Z,330.37
2018-11-23T10:16:40.184Z,331.77
2018-11-23T10:19:09.366Z,423.33
2018-11-23T10:21:37.229Z,351.87
2018-11-23T10:24:05.101Z,343.27
2018-11-23T10:26:32.968Z,372.60
2018-11-23T10:29:00.831Z,405.37
2018-11-23T10:31:28.714Z,397.53
2018-11-23T10:33:56.579Z,411.03
2018-11-23T10:36:24.440Z,416.80
2018-11-23T10:38:52.307Z,401.67
2018-11-23T10:41:20.158Z,404.47
2018-11-23T10:43:48.011Z,324.53
2018-11-23T10:46:15.856Z,411.33
2018-11-23T10:48:43.724Z,349.37
2018-11-23T10:51:11.573Z,420.53
2018-11-23T10:53:39.448Z,355.57
2018-11-23T10:56:07.319Z,375.53
2018-11-23T10:58:35.180Z,341.63
2018-11-23T11:01:08.692Z,391.40
2018-11-23T11:03:40.882Z,331.93
2018-11-23T11:06:14.248Z,312.70
2018-11-23T11:08:42.351Z,336.80
2018-11-23T11:11:13.515Z,379.00
2018-11-23T11:13:38.270Z,356.50
2018-11-23T11:16:06.135Z,523.90
2018-11-23T11:18:34.014Z,494.70
2018-11-23T11:21:01.892Z,430.00
2018-11-23T11:23:29.737Z,436.33
2018-11-23T11:25:57.583Z,520.60
2018-11-23T11:28:25.427Z,423.40
2018-11-23T11:30:53.296Z,455.03
2018-11-23T11:33:21.135Z,427.23
2018-11-23T11:35:49.015Z,466.27
2018-11-23T11:38:16.859Z,378.63
2018-11-23T11:40:44.699Z,415.30
2018-11-23T11:43:12.649Z,444.00
2018-11-23T11:45:40.495Z,407.07
2018-11-23T11:48:08.340Z,406.13
2018-11-23T11:50:36.184Z,460.57
2018-11-23T11:53:04.038Z,503.67
2018-11-23T11:55:31.870Z,516.37
2018-11-23T11:57:59.722Z,454.23
2018-11-23T12:00:27.603Z,447.00
2018-11-23T12:02:55.772Z,482.23
2018-11-23T12:05:23.635Z,513.17
2018-11-23T12:07:51.502Z,589.37
2018-11-23T12:10:20.899Z,530.67
2018-11-23T12:12:48.751Z,506.30
2018-11-23T12:15:16.947Z,546.40
2018-11-23T12:17:44.806Z,538.07
2018-11-23T12:20:14.208Z,552.40
2018-11-23T12:22:42.105Z,534.50
2018-11-23T12:25:10.253Z,573.73
2018-11-23T12:27:38.131Z,574.83
2018-11-23T12:30:08.092Z,535.40
2018-11-23T12:32:35.951Z,722.60
2018-11-23T12:35:03.871Z,603.97
2018-11-23T12:37:31.724Z,588.70
2018-11-23T12:39:59.575Z,645.97
2018-11-23T12:42:27.459Z,645.10
2018-11-23T12:44:55.314Z,681.87
2018-11-23T12:47:23.184Z,703.03
2018-11-23T12:49:51.044Z,577.87
2018-11-23T12:52:18.895Z,683.20
2018-11-23T12:54:46.784Z,839.70
2018-11-23T12:57:14.623Z,665.20
2018-11-23T12:59:42.551Z,741.00
2018-11-23T13:02:10.427Z,586.00
2018-11-23T13:04:38.304Z,665.77
2018-11-23T13:07:06.149Z,723.00
2018-11-23T13:09:34.030Z,734.27
2018-11-23T13:12:01.879Z,769.43
2018-11-23T13:14:29.772Z,769.90
2018-11-23T13:16:57.731Z,846.00
2018-11-23T13:19:25.593Z,935.73
2018-11-23T13:21:53.456Z,919.20
2018-11-23T13:24:21.331Z,866.63
2018-11-23T13:26:49.202Z,778.43
2018-11-23T13:29:17.113Z,842.03
2018-11-23T13:31:44.962Z,832.93
2018-11-23T13:34:12.849Z,882.90
2018-11-23T13:36:40.707Z,797.53
2018-11-23T13:39:08.597Z,817.17
2018-11-23T13:41:36.512Z,783.27
2018-11-23T13:44:04.495Z,795.27
2018-11-23T13:46:32.379Z,833.40
2018-11-23T13:49:00.253Z,795.80
2018-11-23T13:51:28.124Z,789.03
2018-11-23T13:53:55.988Z,873.30
2018-11-23T13:56:23.846Z,899.60
2018-11-23T13:58:52.143Z,859.40
2018-11-23T14:01:20.037Z,771.53
2018-11-23T14:03:47.888Z,807.83
2018-11-23T14:06:15.756Z,783.93
2018-11-23T14:08:43.652Z,727.40
2018-11-23T14:11:11.548Z,770.93
2018-11-23T14:13:45.716Z,734.60
2018-11-23T14:16:14.000Z,675.00
2018-11-23T14:18:41.890Z,758.43
2018-11-23T14:21:09.783Z,787.87
2018-11-23T14:23:37.646Z,906.57
2018-11-23T14:26:05.519Z,804.20
2018-11-23T14:28:33.380Z,796.97
2018-11-23T14:31:01.255Z,1112.13
2018-11-23T14:33:29.129Z,830.43
2018-11-23T14:35:57.040Z,797.20
2018-11-23T14:38:24.915Z,915.13
2018-11-23T14:40:52.856Z,809.83
2018-11-23T14:43:20.735Z,872.27
2018-11-23T14:45:48.603Z,846.77
2018-11-23T14:48:16.460Z,878.40
2018-11-23T14:50:50.663Z,817.10
2018-11-23T14:53:18.539Z,721.07
2018-11-23T14:55:46.399Z,843.30
2018-11-23T14:58:14.259Z,866.60
2018-11-23T15:00:42.209Z,993.33
2018-11-23T15:03:10.089Z,769.97
2018-11-23T15:05:38.366Z,863.33
2018-11-23T15:08:06.303Z,784.33
2018-11-23T15:10:35.031Z,739.20
2018-11-23T15:13:03.813Z,897.73
2018-11-23T15:15:33.116Z,937.10
2018-11-23T15:18:01.287Z,817.33
2018-11-23T15:20:34.989Z,821.77
2018-11-23T15:23:10.831Z,859.20
2018-11-23T15:25:38.809Z,766.13
2018-11-23T15:28:07.166Z,869.90
2018-11-23T15:30:36.184Z,863.07
2018-11-23T15:33:04.560Z,842.50
2018-11-23T15:35:33.136Z,890.60
2018-11-23T15:38:01.007Z,968.13
2018-11-23T15:40:29.651Z,1283.70
2018-11-23T15:42:59.108Z,1000.30
2018-11-23T15:45:27.901Z,862.97
2018-11-23T15:47:56.123Z,843.30
2018-11-23T15:50:25.688Z,841.97
2018-11-23T15:52:53.555Z,843.23
2018-11-23T15:55:23.047Z,864.87
2018-11-23T15:57:52.571Z,815.80
2018-11-23T16:00:23.337Z,796.27
2018-11-23T16:02:51.527Z,773.43
2018-11-23T16:05:19.525Z,888.17
2018-11-23T16:07:47.514Z,917.73
2018-11-23T16:10:18.141Z,903.03
2018-11-23T16:12:47.600Z,1004.63
2018-11-23T16:15:15.518Z,910.50
2018-11-23T16:17:43.419Z,877.53
2018-11-23T16:20:13.988Z,920.47
2018-11-23T16:22:42.268Z,959.77
2018-11-23T16:25:11.067Z,965.10
2018-11-23T16:27:42.888Z,917.80
2018-11-23T16:30:16.165Z,913.43
2018-11-23T16:32:49.582Z,890.17
2018-11-23T16:35:25.680Z,854.67
2018-11-23T16:37:59.606Z,958.77
2018-11-23T16:40:33.018Z,792.93
2018-11-23T16:43:05.668Z,795.40
2018-11-23T16:45:39.379Z,897.70
2018-11-23T16:48:14.772Z,989.47
2018-11-23T16:50:48.729Z,810.43
2018-11-23T16:53:21.187Z,859.17
2018-11-23T16:55:53.437Z,860.17
2018-11-23T16:58:24.022Z,904.00
2018-11-23T17:00:55.739Z,959.93
2018-11-23T17:03:27.756Z,976.97
2018-11-23T17:05:59.489Z,1002.77
2018-11-23T17:08:30.688Z,953.23
2018-11-23T17:11:00.252Z,986.13
2018-11-23T17:13:28.160Z,1089.90
2018-11-23T17:15:56.016Z,1124.17
2018-11-23T17:18:23.912Z,1044.70
2018-11-23T17:20:51.766Z,1202.90
2018-11-23T17:23:19.623Z,1139.23
2018-11-23T17:25:47.475Z,1172.00
2018-11-23T17:28:15.343Z,1179.00
2018-11-23T17:30:43.196Z,1259.93
2018-11-23T17:33:11.047Z,1282.47
2018-11-23T17:35:38.938Z,1288.87
2018-11-23T17:38:06.810Z,1287.13
2018-11-23T17:40:39.109Z,1311.97
2018-11-23T17:43:07.074Z,1288.50
2018-11-23T17:45:35.139Z,1357.63
2018-11-23T17:48:03.107Z,1253.03
2018-11-23T17:50:32.431Z,1212.47
2018-11-23T17:53:00.604Z,1457.47
2018-11-23T17:55:28.460Z,1312.13
2018-11-23T17:57:56.762Z,1381.50
2018-11-23T18:00:26.135Z,1518.40
2018-11-23T18:02:54.511Z,1375.20
2018-11-23T18:05:23.333Z,1523.47
2018-11-23T18:07:51.466Z,1406.33
2018-11-23T18:10:20.805Z,1608.77
2018-11-23T18:12:48.985Z,1420.57
2018-11-23T18:15:18.763Z,1663.37
2018-11-23T18:17:47.054Z,1425.87
2018-11-23T18:20:16.141Z,1474.60
2018-11-23T18:22:44.308Z,1561.27
2018-11-23T18:25:14.944Z,1324.57
2018-11-23T18:27:43.632Z,1479.80
2018-11-23T18:30:11.711Z,1327.93
2018-11-23T18:32:39.578Z,1333.50
2018-11-23T18:35:08.227Z,1371.30
2018-11-23T18:37:36.084Z,1358.70
2018-11-23T18:40:05.331Z,1436.60
2018-11-23T18:42:33.197Z,1327.83
2018-11-23T18:45:01.038Z,1346.70
2018-11-23T18:47:28.891Z,1425.40
2018-11-23T18:49:56.743Z,1420.60
2018-11-23T18:52:24.600Z,1358.33
2018-11-23T18:54:52.443Z,1598.10
2018-11-23T18:57:20.291Z,1500.57
2018-11-23T18:59:48.167Z,1480.70
2018-11-23T19:02:16.039Z,1615.43
2018-11-23T19:04:43.945Z,1659.33
2018-11-23T19:07:11.799Z,1500.07
2018-11-23T19:09:39.682Z,1623.77
2018-11-23T19:12:07.531Z,1382.77
2018-11-23T19:14:35.407Z,1555.33
2018-11-23T19:17:03.315Z,1451.90
2018-11-23T19:19:31.175Z,1608.03
2018-11-23T19:21:59.163Z,1518.60
2018-11-23T19:24:27.006Z,1402.37
2018-11-23T19:26:54.854Z,1639.13
2018-11-23T19:29:22.723Z,1593.10
2018-11-23T19:31:50.576Z,1561.33
2018-11-23T19:34:18.448Z,1680.63
2018-11-23T19:36:46.323Z,1452.27
2018-11-23T19:39:14.182Z,1657.90
2018-11-23T19:41:42.105Z,1649.33
2018-11-23T19:44:09.967Z,1662.60
2018-11-23T19:46:37.816Z,1625.40
2018-11-23T19:49:05.691Z,1638.70
2018-11-23T19:51:33.589Z,1610.97
2018-11-23T19:54:01.434Z,1608.53
2018-11-23T19:56:29.537Z,1412.00
2018-11-23T19:58:57.156Z,1534.83
2018-11-23T20:01:25.050Z,1572.70
2018-11-23T20:03:53.023Z,1562.63
2018-11-23T20:06:20.886Z,1453.40
2018-11-23T20:08:48.751Z,1449.77
2018-11-23T20:11:16.636Z,1559.03
2018-11-23T20:13:44.484Z,1430.30
2018-11-23T20:16:12.446Z,1565.53
2018-11-23T20:18:40.323Z,1517.17
2018-11-23T20:21:08.242Z,1495.83
2018-11-23T20:23:36.109Z,1510.80
2018-11-23T20:26:03.983Z,1478.63
2018-11-23T20:28:31.847Z,1353.20
2018-11-23T20:30:59.694Z,1428.87
2018-11-23T20:33:27.552Z,1444.93
2018-11-23T20:35:55.411Z,1596.03
2018-11-23T20:38:24.079Z,1444.43
2018-11-23T20:40:52.655Z,1379.27
2018-11-23T20:43:20.609Z,1425.50
2018-11-23T20:45:48.526Z,1505.73
2018-11-23T20:48:16.452Z,1398.70
2018-11-23T20:50:44.370Z,1507.80
2018-11-23T20:53:12.282Z,1474.67
2018-11-23T20:55:40.168Z,1412.57
2018-11-23T20:58:08.048Z,1506.37
2018-11-23T21:00:35.897Z,1503.57
2018-11-23T21:03:03.755Z,1408.97
2018-11-23T21:05:31.622Z,1469.13
2018-11-23T21:07:59.493Z,1333.60
2018-11-23T21:10:27.376Z,1424.10
2018-11-23T21:12:55.227Z,1372.50
2018-11-23T21:15:24.646Z,1452.97
2018-11-23T21:17:52.624Z,1323.53
2018-11-23T21:20:20.795Z,1351.40
2018-11-23T21:22:48.739Z,1317.37
2018-11-23T21:25:16.587Z,1284.90
2018-11-23T21:27:44.431Z,1442.57
2018-11-23T21:30:12.938Z,1297.00
2018-11-23T21:32:40.815Z,1188.00
2018-11-23T21:35:08.994Z,1288.23
2018-11-23T21:37:36.944Z,1594.80
2018-11-23T21:40:06.295Z,1123.33
2018-11-23T21:42:34.139Z,1173.37
2018-11-23T21:45:02.092Z,1064.23
2018-11-23T21:47:29.988Z,1091.00
2018-11-23T21:49:57.841Z,1125.40
2018-11-23T21:52:25.973Z,1045.87
2018-11-23T21:54:53.834Z,1020.53
2018-11-23T21:57:21.695Z,1001.87
2018-11-23T21:59:49.605Z,920.33
2018-11-23T22:02:17.507Z,1016.33
2018-11-23T22:04:45.344Z,984.03
2018-11-23T22:07:13.218Z,1036.40
2018-11-23T22:09:41.091Z,1069.30
2018-11-23T22:12:13.750Z,1123.37
2018-11-23T22:14:41.747Z,1097.70
2018-11-23T22:17:10.182Z,1045.23
2018-11-23T22:19:39.979Z,1153.97
2018-11-23T22:22:07.858Z,1057.10
2018-11-23T22:24:35.742Z,1146.77
2018-11-23T22:27:08.224Z,1119.43
2018-11-23T22:29:36.492Z,1038.03
2018-11-23T22:32:04.484Z,1025.03
2018-11-23T22:34:38.772Z,1065.27
2018-11-23T22:37:11.209Z,937.57
2018-11-23T22:39:44.164Z,863.30
2018-11-23T22:42:17.697Z,1011.20
2018-11-23T22:44:45.858Z,954.20
2018-11-23T22:47:13.764Z,1199.93
2018-11-23T22:49:41.627Z,1120.97
2018-11-23T22:52:09.521Z,1166.07
2018-11-23T22:54:37.558Z,1173.17
2018-11-23T22:57:11.585Z,1148.40
2018-11-23T22:59:33.339Z,1072.03
2018-11-23T23:02:01.223Z,1123.40
2018-11-23T23:04:29.075Z,1129.93
2018-11-23T23:06:56.960Z,1307.00
2018-11-23T23:09:24.861Z,1137.53
2018-11-23T23:11:52.699Z,1211.43
2018-11-23T23:14:20.643Z,1165.33
2018-11-23T23:16:49.334Z,1150.93
2018-11-23T23:19:17.199Z,1067.47
2018-11-23T23:21:45.155Z,1202.20
2018-11-23T23:24:13.083Z,1013.73
2018-11-23T23:26:40.917Z,1182.50
2018-11-23T23:29:08.775Z,1098.57
2018-11-23T23:31:36.695Z,1170.47
2018-11-23T23:34:04.607Z,1123.57
2018-11-23T23:36:32.472Z,1039.60
2018-11-23T23:39:00.411Z,1077.07
2018-11-23T23:41:28.354Z,1061.27
2018-11-23T23:43:56.222Z,1114.23
2018-11-23T23:46:24.059Z,1274.80
2018-11-23T23:48:51.916Z,1138.50
2018-11-23T23:51:19.770Z,1110.63
2018-11-23T23:53:47.626Z,1146.53
2018-11-23T23:56:15.566Z,1075.43
2018-11-23T23:58:43.416Z,893.77
